sensor_id;sensor_type;location;lat;lon;timestamp;P1;durP1;ratioP1;P2;durP2;ratioP2
61840;SDS011;47773;53.174;6.614;2024-02-16T00:00:39;10.65;;;3.28;;
61840;SDS011;47773;53.174;6.614;2024-02-16T00:03:09;10.45;;;3.70;;
61840;SDS011;47773;53.174;6.614;2024-02-16T00:05:35;8.00;;;3.55;;
61840;SDS011;47773;53.174;6.614;2024-02-16T00:08:01;6.68;;;3.38;;
61840;SDS011;47773;53.174;6.614;2024-02-16T00:10:28;8.27;;;3.63;;
61840;SDS011;47773;53.174;6.614;2024-02-16T00:12:54;7.68;;;3.47;;
61840;SDS011;47773;53.174;6.614;2024-02-16T00:15:19;8.98;;;3.40;;
61840;SDS011;47773;53.174;6.614;2024-02-16T00:17:45;8.73;;;3.58;;
61840;SDS011;47773;53.174;6.614;2024-02-16T00:20:11;11.32;;;3.78;;
61840;SDS011;47773;53.174;6.614;2024-02-16T00:22:39;8.20;;;3.72;;
61840;SDS011;47773;53.174;6.614;2024-02-16T00:25:06;10.30;;;3.60;;
61840;SDS011;47773;53.174;6.614;2024-02-16T00:27:32;6.18;;;3.08;;
61840;SDS011;47773;53.174;6.614;2024-02-16T00:29:57;8.70;;;3.60;;
61840;SDS011;47773;53.174;6.614;2024-02-16T00:32:23;9.60;;;3.05;;
61840;SDS011;47773;53.174;6.614;2024-02-16T00:34:55;15.67;;;3.73;;
61840;SDS011;47773;53.174;6.614;2024-02-16T00:37:22;7.03;;;3.20;;
61840;SDS011;47773;53.174;6.614;2024-02-16T00:39:47;9.98;;;3.05;;
61840;SDS011;47773;53.174;6.614;2024-02-16T00:42:13;13.18;;;3.05;;
61840;SDS011;47773;53.174;6.614;2024-02-16T00:44:39;7.28;;;3.10;;
61840;SDS011;47773;53.174;6.614;2024-02-16T00:47:04;10.07;;;3.85;;
61840;SDS011;47773;53.174;6.614;2024-02-16T00:49:31;11.23;;;3.20;;
61840;SDS011;47773;53.174;6.614;2024-02-16T00:51:57;10.05;;;4.07;;
61840;SDS011;47773;53.174;6.614;2024-02-16T00:54:23;9.82;;;3.08;;
61840;SDS011;47773;53.174;6.614;2024-02-16T00:56:48;8.70;;;3.20;;
61840;SDS011;47773;53.174;6.614;2024-02-16T00:59:14;7.80;;;3.25;;
61840;SDS011;47773;53.174;6.614;2024-02-16T01:01:40;7.82;;;3.13;;
61840;SDS011;47773;53.174;6.614;2024-02-16T01:04:05;12.45;;;3.15;;
61840;SDS011;47773;53.174;6.614;2024-02-16T01:06:32;11.02;;;3.13;;
61840;SDS011;47773;53.174;6.614;2024-02-16T01:08:58;6.45;;;3.42;;
61840;SDS011;47773;53.174;6.614;2024-02-16T01:11:23;13.25;;;3.20;;
61840;SDS011;47773;53.174;6.614;2024-02-16T01:13:49;11.05;;;3.80;;
61840;SDS011;47773;53.174;6.614;2024-02-16T01:16:15;7.78;;;3.05;;
61840;SDS011;47773;53.174;6.614;2024-02-16T01:18:42;9.75;;;3.53;;
61840;SDS011;47773;53.174;6.614;2024-02-16T01:21:09;9.93;;;3.05;;
61840;SDS011;47773;53.174;6.614;2024-02-16T01:23:35;10.50;;;3.50;;
61840;SDS011;47773;53.174;6.614;2024-02-16T01:26:01;7.15;;;2.83;;
61840;SDS011;47773;53.174;6.614;2024-02-16T01:28:27;8.13;;;3.22;;
61840;SDS011;47773;53.174;6.614;2024-02-16T01:30:52;8.30;;;3.28;;
61840;SDS011;47773;53.174;6.614;2024-02-16T01:33:21;7.68;;;3.58;;
61840;SDS011;47773;53.174;6.614;2024-02-16T01:35:47;8.20;;;2.83;;
61840;SDS011;47773;53.174;6.614;2024-02-16T01:38:13;12.20;;;4.10;;
61840;SDS011;47773;53.174;6.614;2024-02-16T01:40:38;6.90;;;3.15;;
61840;SDS011;47773;53.174;6.614;2024-02-16T01:43:04;11.05;;;3.10;;
61840;SDS011;47773;53.174;6.614;2024-02-16T01:45:30;10.13;;;3.17;;
61840;SDS011;47773;53.174;6.614;2024-02-16T01:47:56;11.93;;;3.38;;
61840;SDS011;47773;53.174;6.614;2024-02-16T01:50:22;9.82;;;3.10;;
61840;SDS011;47773;53.174;6.614;2024-02-16T01:52:48;7.47;;;2.92;;
61840;SDS011;47773;53.174;6.614;2024-02-16T01:55:15;10.00;;;3.00;;
61840;SDS011;47773;53.174;6.614;2024-02-16T01:57:44;8.55;;;3.25;;
61840;SDS011;47773;53.174;6.614;2024-02-16T02:00:11;7.95;;;3.13;;
61840;SDS011;47773;53.174;6.614;2024-02-16T02:02:40;10.27;;;3.05;;
61840;SDS011;47773;53.174;6.614;2024-02-16T02:05:08;6.80;;;3.20;;
61840;SDS011;47773;53.174;6.614;2024-02-16T02:07:34;10.70;;;3.53;;
61840;SDS011;47773;53.174;6.614;2024-02-16T02:09:59;9.73;;;3.22;;
61840;SDS011;47773;53.174;6.614;2024-02-16T02:12:25;10.40;;;3.60;;
61840;SDS011;47773;53.174;6.614;2024-02-16T02:14:51;6.13;;;3.10;;
61840;SDS011;47773;53.174;6.614;2024-02-16T02:17:17;6.13;;;3.03;;
61840;SDS011;47773;53.174;6.614;2024-02-16T02:19:44;9.93;;;3.10;;
61840;SDS011;47773;53.174;6.614;2024-02-16T02:22:17;6.45;;;3.00;;
61840;SDS011;47773;53.174;6.614;2024-02-16T02:24:44;8.43;;;2.90;;
61840;SDS011;47773;53.174;6.614;2024-02-16T02:27:11;10.27;;;3.17;;
61840;SDS011;47773;53.174;6.614;2024-02-16T02:29:38;6.88;;;2.88;;
61840;SDS011;47773;53.174;6.614;2024-02-16T02:32:04;7.15;;;2.80;;
61840;SDS011;47773;53.174;6.614;2024-02-16T02:34:30;5.95;;;2.90;;
61840;SDS011;47773;53.174;6.614;2024-02-16T02:36:56;8.00;;;3.17;;
61840;SDS011;47773;53.174;6.614;2024-02-16T02:39:22;6.93;;;3.20;;
61840;SDS011;47773;53.174;6.614;2024-02-16T02:41:48;9.48;;;2.95;;
61840;SDS011;47773;53.174;6.614;2024-02-16T02:44:14;8.48;;;3.30;;
61840;SDS011;47773;53.174;6.614;2024-02-16T02:46:39;7.45;;;3.00;;
61840;SDS011;47773;53.174;6.614;2024-02-16T02:49:05;8.55;;;3.35;;
61840;SDS011;47773;53.174;6.614;2024-02-16T02:51:31;7.25;;;2.88;;
61840;SDS011;47773;53.174;6.614;2024-02-16T02:53:56;6.90;;;2.95;;
61840;SDS011;47773;53.174;6.614;2024-02-16T02:56:22;9.25;;;3.30;;
61840;SDS011;47773;53.174;6.614;2024-02-16T02:58:48;7.03;;;3.00;;
61840;SDS011;47773;53.174;6.614;2024-02-16T03:01:13;9.40;;;3.05;;
61840;SDS011;47773;53.174;6.614;2024-02-16T03:03:39;7.43;;;3.40;;
61840;SDS011;47773;53.174;6.614;2024-02-16T03:06:06;11.63;;;3.40;;
61840;SDS011;47773;53.174;6.614;2024-02-16T03:08:32;7.05;;;2.92;;
61840;SDS011;47773;53.174;6.614;2024-02-16T03:10:58;8.88;;;3.30;;
61840;SDS011;47773;53.174;6.614;2024-02-16T03:13:25;10.23;;;3.10;;
61840;SDS011;47773;53.174;6.614;2024-02-16T03:15:51;9.07;;;3.17;;
61840;SDS011;47773;53.174;6.614;2024-02-16T03:18:18;9.68;;;3.67;;
61840;SDS011;47773;53.174;6.614;2024-02-16T03:20:44;8.60;;;3.72;;
61840;SDS011;47773;53.174;6.614;2024-02-16T03:23:13;9.68;;;3.20;;
61840;SDS011;47773;53.174;6.614;2024-02-16T03:25:39;9.20;;;3.67;;
61840;SDS011;47773;53.174;6.614;2024-02-16T03:28:05;11.73;;;3.33;;
61840;SDS011;47773;53.174;6.614;2024-02-16T03:30:30;8.05;;;3.03;;
61840;SDS011;47773;53.174;6.614;2024-02-16T03:32:56;10.50;;;2.83;;
61840;SDS011;47773;53.174;6.614;2024-02-16T03:35:22;8.55;;;3.17;;
61840;SDS011;47773;53.174;6.614;2024-02-16T03:37:47;8.82;;;3.08;;
61840;SDS011;47773;53.174;6.614;2024-02-16T03:40:13;9.77;;;3.20;;
61840;SDS011;47773;53.174;6.614;2024-02-16T03:42:39;6.25;;;2.92;;
61840;SDS011;47773;53.174;6.614;2024-02-16T03:45:06;6.82;;;3.28;;
61840;SDS011;47773;53.174;6.614;2024-02-16T03:47:32;6.90;;;3.45;;
61840;SDS011;47773;53.174;6.614;2024-02-16T03:49:58;10.60;;;3.50;;
61840;SDS011;47773;53.174;6.614;2024-02-16T03:52:24;6.18;;;4.00;;
61840;SDS011;47773;53.174;6.614;2024-02-16T03:54:49;8.18;;;2.92;;
61840;SDS011;47773;53.174;6.614;2024-02-16T03:57:16;9.15;;;3.50;;
61840;SDS011;47773;53.174;6.614;2024-02-16T03:59:42;5.97;;;3.13;;
61840;SDS011;47773;53.174;6.614;2024-02-16T04:02:09;7.55;;;3.53;;
61840;SDS011;47773;53.174;6.614;2024-02-16T04:04:35;8.32;;;3.40;;
61840;SDS011;47773;53.174;6.614;2024-02-16T04:07:01;4.57;;;2.80;;
61840;SDS011;47773;53.174;6.614;2024-02-16T04:09:26;9.82;;;3.47;;
61840;SDS011;47773;53.174;6.614;2024-02-16T04:11:52;6.88;;;3.13;;
61840;SDS011;47773;53.174;6.614;2024-02-16T04:14:18;10.43;;;4.05;;
61840;SDS011;47773;53.174;6.614;2024-02-16T04:16:43;7.43;;;3.30;;
61840;SDS011;47773;53.174;6.614;2024-02-16T04:19:09;6.97;;;3.05;;
61840;SDS011;47773;53.174;6.614;2024-02-16T04:21:35;8.60;;;3.38;;
61840;SDS011;47773;53.174;6.614;2024-02-16T04:24:01;8.10;;;3.30;;
61840;SDS011;47773;53.174;6.614;2024-02-16T04:26:28;8.65;;;3.28;;
61840;SDS011;47773;53.174;6.614;2024-02-16T04:28:54;9.27;;;3.55;;
61840;SDS011;47773;53.174;6.614;2024-02-16T04:31:19;8.63;;;3.28;;
61840;SDS011;47773;53.174;6.614;2024-02-16T04:33:45;6.25;;;2.92;;
61840;SDS011;47773;53.174;6.614;2024-02-16T04:36:10;7.75;;;2.80;;
61840;SDS011;47773;53.174;6.614;2024-02-16T04:38:36;15.43;;;3.80;;
61840;SDS011;47773;53.174;6.614;2024-02-16T04:41:04;6.35;;;3.13;;
61840;SDS011;47773;53.174;6.614;2024-02-16T04:43:30;8.10;;;3.30;;
61840;SDS011;47773;53.174;6.614;2024-02-16T04:45:55;7.70;;;3.45;;
61840;SDS011;47773;53.174;6.614;2024-02-16T04:48:21;7.05;;;3.42;;
61840;SDS011;47773;53.174;6.614;2024-02-16T04:50:47;6.93;;;2.95;;
61840;SDS011;47773;53.174;6.614;2024-02-16T04:53:12;7.78;;;3.22;;
61840;SDS011;47773;53.174;6.614;2024-02-16T04:55:38;7.03;;;3.03;;
61840;SDS011;47773;53.174;6.614;2024-02-16T04:58:03;9.13;;;3.22;;
61840;SDS011;47773;53.174;6.614;2024-02-16T05:00:35;8.90;;;3.22;;
61840;SDS011;47773;53.174;6.614;2024-02-16T05:03:02;5.55;;;3.10;;
61840;SDS011;47773;53.174;6.614;2024-02-16T05:05:28;6.20;;;3.38;;
61840;SDS011;47773;53.174;6.614;2024-02-16T05:07:53;7.13;;;3.13;;
61840;SDS011;47773;53.174;6.614;2024-02-16T05:10:19;14.00;;;3.35;;
61840;SDS011;47773;53.174;6.614;2024-02-16T05:12:45;9.15;;;3.50;;
61840;SDS011;47773;53.174;6.614;2024-02-16T05:15:11;10.75;;;3.10;;
61840;SDS011;47773;53.174;6.614;2024-02-16T05:17:39;6.70;;;3.15;;
61840;SDS011;47773;53.174;6.614;2024-02-16T05:20:09;8.15;;;3.13;;
61840;SDS011;47773;53.174;6.614;2024-02-16T05:22:40;8.82;;;3.40;;
61840;SDS011;47773;53.174;6.614;2024-02-16T05:25:11;8.43;;;3.60;;
61840;SDS011;47773;53.174;6.614;2024-02-16T05:27:37;10.50;;;3.20;;
61840;SDS011;47773;53.174;6.614;2024-02-16T05:30:03;6.90;;;2.83;;
61840;SDS011;47773;53.174;6.614;2024-02-16T05:32:33;8.35;;;3.30;;
61840;SDS011;47773;53.174;6.614;2024-02-16T05:34:59;12.20;;;3.55;;
61840;SDS011;47773;53.174;6.614;2024-02-16T05:37:29;6.63;;;3.10;;
61840;SDS011;47773;53.174;6.614;2024-02-16T05:39:57;10.50;;;3.67;;
61840;SDS011;47773;53.174;6.614;2024-02-16T05:42:43;7.75;;;3.20;;
61840;SDS011;47773;53.174;6.614;2024-02-16T05:45:08;5.90;;;3.17;;
61840;SDS011;47773;53.174;6.614;2024-02-16T05:47:36;6.85;;;3.70;;
61840;SDS011;47773;53.174;6.614;2024-02-16T05:50:03;9.57;;;3.13;;
61840;SDS011;47773;53.174;6.614;2024-02-16T05:52:30;13.18;;;3.92;;
61840;SDS011;47773;53.174;6.614;2024-02-16T05:54:56;7.35;;;3.15;;
61840;SDS011;47773;53.174;6.614;2024-02-16T05:57:21;10.32;;;3.85;;
61840;SDS011;47773;53.174;6.614;2024-02-16T05:59:48;6.40;;;3.17;;
61840;SDS011;47773;53.174;6.614;2024-02-16T06:02:14;9.15;;;3.03;;
61840;SDS011;47773;53.174;6.614;2024-02-16T06:04:40;9.73;;;3.65;;
61840;SDS011;47773;53.174;6.614;2024-02-16T06:07:07;10.13;;;3.50;;
61840;SDS011;47773;53.174;6.614;2024-02-16T06:09:33;8.68;;;3.72;;
61840;SDS011;47773;53.174;6.614;2024-02-16T06:12:03;6.85;;;3.65;;
61840;SDS011;47773;53.174;6.614;2024-02-16T06:14:30;9.45;;;3.33;;
61840;SDS011;47773;53.174;6.614;2024-02-16T06:16:56;6.10;;;3.20;;
61840;SDS011;47773;53.174;6.614;2024-02-16T06:19:22;6.65;;;3.60;;
61840;SDS011;47773;53.174;6.614;2024-02-16T06:21:47;6.03;;;3.22;;
61840;SDS011;47773;53.174;6.614;2024-02-16T06:24:13;7.55;;;3.08;;
61840;SDS011;47773;53.174;6.614;2024-02-16T06:26:38;6.78;;;3.50;;
61840;SDS011;47773;53.174;6.614;2024-02-16T06:29:04;6.07;;;3.17;;
61840;SDS011;47773;53.174;6.614;2024-02-16T06:31:30;6.30;;;3.00;;
61840;SDS011;47773;53.174;6.614;2024-02-16T06:33:55;6.32;;;3.33;;
61840;SDS011;47773;53.174;6.614;2024-02-16T06:36:22;6.10;;;3.30;;
61840;SDS011;47773;53.174;6.614;2024-02-16T06:38:48;8.52;;;3.60;;
61840;SDS011;47773;53.174;6.614;2024-02-16T06:41:13;7.35;;;3.05;;
61840;SDS011;47773;53.174;6.614;2024-02-16T06:43:39;6.22;;;3.20;;
61840;SDS011;47773;53.174;6.614;2024-02-16T06:46:05;5.35;;;3.00;;
61840;SDS011;47773;53.174;6.614;2024-02-16T06:48:31;10.05;;;3.60;;
61840;SDS011;47773;53.174;6.614;2024-02-16T06:50:56;7.28;;;3.10;;
61840;SDS011;47773;53.174;6.614;2024-02-16T06:53:22;5.88;;;2.88;;
61840;SDS011;47773;53.174;6.614;2024-02-16T06:55:47;7.68;;;2.85;;
61840;SDS011;47773;53.174;6.614;2024-02-16T06:58:13;9.68;;;3.47;;
61840;SDS011;47773;53.174;6.614;2024-02-16T07:00:39;7.07;;;2.90;;
61840;SDS011;47773;53.174;6.614;2024-02-16T07:03:07;8.95;;;3.20;;
61840;SDS011;47773;53.174;6.614;2024-02-16T07:05:33;6.88;;;3.33;;
61840;SDS011;47773;53.174;6.614;2024-02-16T07:07:59;6.60;;;2.88;;
61840;SDS011;47773;53.174;6.614;2024-02-16T07:10:25;6.90;;;3.20;;
61840;SDS011;47773;53.174;6.614;2024-02-16T07:12:51;7.95;;;3.50;;
61840;SDS011;47773;53.174;6.614;2024-02-16T07:15:16;6.88;;;2.90;;
61840;SDS011;47773;53.174;6.614;2024-02-16T07:17:42;6.78;;;2.88;;
61840;SDS011;47773;53.174;6.614;2024-02-16T07:20:07;6.40;;;3.40;;
61840;SDS011;47773;53.174;6.614;2024-02-16T07:22:33;11.30;;;3.33;;
61840;SDS011;47773;53.174;6.614;2024-02-16T07:24:59;11.00;;;3.17;;
61840;SDS011;47773;53.174;6.614;2024-02-16T07:27:25;8.77;;;3.17;;
61840;SDS011;47773;53.174;6.614;2024-02-16T07:29:51;8.68;;;2.85;;
61840;SDS011;47773;53.174;6.614;2024-02-16T07:32:17;6.68;;;3.08;;
61840;SDS011;47773;53.174;6.614;2024-02-16T07:34:46;6.00;;;3.08;;
61840;SDS011;47773;53.174;6.614;2024-02-16T07:37:15;11.88;;;3.65;;
61840;SDS011;47773;53.174;6.614;2024-02-16T07:39:41;6.75;;;2.83;;
61840;SDS011;47773;53.174;6.614;2024-02-16T07:42:07;8.85;;;3.20;;
61840;SDS011;47773;53.174;6.614;2024-02-16T07:44:37;8.23;;;2.92;;
61840;SDS011;47773;53.174;6.614;2024-02-16T07:47:03;7.50;;;3.15;;
61840;SDS011;47773;53.174;6.614;2024-02-16T07:49:29;8.10;;;3.20;;
61840;SDS011;47773;53.174;6.614;2024-02-16T07:51:55;9.65;;;3.95;;
61840;SDS011;47773;53.174;6.614;2024-02-16T07:54:21;9.23;;;3.80;;
61840;SDS011;47773;53.174;6.614;2024-02-16T07:56:46;8.82;;;3.28;;
61840;SDS011;47773;53.174;6.614;2024-02-16T07:59:12;6.78;;;3.10;;
61840;SDS011;47773;53.174;6.614;2024-02-16T08:01:38;17.10;;;3.63;;
61840;SDS011;47773;53.174;6.614;2024-02-16T08:04:04;5.45;;;3.25;;
61840;SDS011;47773;53.174;6.614;2024-02-16T08:06:29;12.63;;;3.65;;
61840;SDS011;47773;53.174;6.614;2024-02-16T08:08:55;6.90;;;3.17;;
61840;SDS011;47773;53.174;6.614;2024-02-16T08:11:22;7.60;;;3.35;;
61840;SDS011;47773;53.174;6.614;2024-02-16T08:13:47;9.63;;;3.55;;
61840;SDS011;47773;53.174;6.614;2024-02-16T08:16:13;5.45;;;3.08;;
61840;SDS011;47773;53.174;6.614;2024-02-16T08:18:39;8.73;;;3.50;;
61840;SDS011;47773;53.174;6.614;2024-02-16T08:21:04;7.20;;;3.70;;
61840;SDS011;47773;53.174;6.614;2024-02-16T08:23:30;7.00;;;3.58;;
61840;SDS011;47773;53.174;6.614;2024-02-16T08:25:56;7.05;;;3.58;;
61840;SDS011;47773;53.174;6.614;2024-02-16T08:28:22;9.02;;;3.95;;
61840;SDS011;47773;53.174;6.614;2024-02-16T08:30:48;10.25;;;4.60;;
61840;SDS011;47773;53.174;6.614;2024-02-16T08:33:14;12.90;;;3.53;;
61840;SDS011;47773;53.174;6.614;2024-02-16T08:35:39;10.40;;;3.70;;
61840;SDS011;47773;53.174;6.614;2024-02-16T08:38:05;7.68;;;3.83;;
61840;SDS011;47773;53.174;6.614;2024-02-16T08:40:35;9.93;;;3.78;;
61840;SDS011;47773;53.174;6.614;2024-02-16T08:43:02;6.95;;;3.40;;
61840;SDS011;47773;53.174;6.614;2024-02-16T08:45:28;9.75;;;3.88;;
61840;SDS011;47773;53.174;6.614;2024-02-16T08:47:54;12.90;;;3.65;;
61840;SDS011;47773;53.174;6.614;2024-02-16T08:50:21;11.00;;;4.18;;
61840;SDS011;47773;53.174;6.614;2024-02-16T08:52:47;9.13;;;4.10;;
61840;SDS011;47773;53.174;6.614;2024-02-16T08:55:13;9.07;;;4.10;;
61840;SDS011;47773;53.174;6.614;2024-02-16T08:57:38;8.13;;;3.60;;
61840;SDS011;47773;53.174;6.614;2024-02-16T09:00:04;7.30;;;3.80;;
61840;SDS011;47773;53.174;6.614;2024-02-16T09:02:30;7.45;;;3.90;;
61840;SDS011;47773;53.174;6.614;2024-02-16T09:04:56;8.50;;;4.05;;
61840;SDS011;47773;53.174;6.614;2024-02-16T09:07:21;9.10;;;3.38;;
61840;SDS011;47773;53.174;6.614;2024-02-16T09:09:47;8.30;;;4.30;;
61840;SDS011;47773;53.174;6.614;2024-02-16T09:12:13;7.47;;;3.78;;
61840;SDS011;47773;53.174;6.614;2024-02-16T09:14:39;10.90;;;4.20;;
61840;SDS011;47773;53.174;6.614;2024-02-16T09:17:04;7.55;;;3.97;;
61840;SDS011;47773;53.174;6.614;2024-02-16T09:19:30;9.13;;;3.72;;
61840;SDS011;47773;53.174;6.614;2024-02-16T09:21:56;6.30;;;3.85;;
61840;SDS011;47773;53.174;6.614;2024-02-16T09:24:23;12.38;;;4.32;;
61840;SDS011;47773;53.174;6.614;2024-02-16T09:26:53;10.63;;;3.72;;
61840;SDS011;47773;53.174;6.614;2024-02-16T09:29:19;16.23;;;4.20;;
61840;SDS011;47773;53.174;6.614;2024-02-16T09:31:44;9.60;;;3.88;;
61840;SDS011;47773;53.174;6.614;2024-02-16T09:34:13;8.05;;;3.90;;
61840;SDS011;47773;53.174;6.614;2024-02-16T09:36:39;8.35;;;4.07;;
61840;SDS011;47773;53.174;6.614;2024-02-16T09:39:04;7.45;;;3.70;;
61840;SDS011;47773;53.174;6.614;2024-02-16T09:41:32;8.60;;;4.15;;
61840;SDS011;47773;53.174;6.614;2024-02-16T09:44:03;10.50;;;4.28;;
61840;SDS011;47773;53.174;6.614;2024-02-16T09:46:29;10.18;;;4.30;;
61840;SDS011;47773;53.174;6.614;2024-02-16T09:48:58;8.20;;;4.30;;
61840;SDS011;47773;53.174;6.614;2024-02-16T09:51:27;9.73;;;4.38;;
61840;SDS011;47773;53.174;6.614;2024-02-16T09:53:53;10.32;;;4.50;;
61840;SDS011;47773;53.174;6.614;2024-02-16T09:56:22;8.88;;;4.60;;
61840;SDS011;47773;53.174;6.614;2024-02-16T09:58:50;8.98;;;4.60;;
61840;SDS011;47773;53.174;6.614;2024-02-16T10:01:17;10.18;;;4.50;;
61840;SDS011;47773;53.174;6.614;2024-02-16T10:03:47;10.60;;;4.63;;
61840;SDS011;47773;53.174;6.614;2024-02-16T10:06:14;8.88;;;4.28;;
61840;SDS011;47773;53.174;6.614;2024-02-16T10:08:55;8.38;;;4.60;;
61840;SDS011;47773;53.174;6.614;2024-02-16T10:11:25;8.10;;;4.75;;
61840;SDS011;47773;53.174;6.614;2024-02-16T10:14:02;10.70;;;4.65;;
61840;SDS011;47773;53.174;6.614;2024-02-16T10:16:29;11.15;;;5.18;;
61840;SDS011;47773;53.174;6.614;2024-02-16T10:18:56;10.50;;;5.03;;
61840;SDS011;47773;53.174;6.614;2024-02-16T10:21:29;12.85;;;5.13;;
61840;SDS011;47773;53.174;6.614;2024-02-16T10:24:05;7.82;;;5.00;;
61840;SDS011;47773;53.174;6.614;2024-02-16T10:26:33;11.85;;;5.03;;
61840;SDS011;47773;53.174;6.614;2024-02-16T10:29:08;9.02;;;5.38;;
61840;SDS011;47773;53.174;6.614;2024-02-16T10:31:34;11.77;;;5.25;;
61840;SDS011;47773;53.174;6.614;2024-02-16T10:34:01;13.98;;;5.47;;
61840;SDS011;47773;53.174;6.614;2024-02-16T10:36:33;13.45;;;5.65;;
61840;SDS011;47773;53.174;6.614;2024-02-16T10:39:01;13.45;;;5.55;;
61840;SDS011;47773;53.174;6.614;2024-02-16T10:41:33;9.80;;;5.78;;
61840;SDS011;47773;53.174;6.614;2024-02-16T10:44:03;11.85;;;6.22;;
61840;SDS011;47773;53.174;6.614;2024-02-16T10:46:30;12.57;;;6.03;;
61840;SDS011;47773;53.174;6.614;2024-02-16T10:48:57;12.65;;;6.50;;
61840;SDS011;47773;53.174;6.614;2024-02-16T10:51:27;11.27;;;6.20;;
61840;SDS011;47773;53.174;6.614;2024-02-16T10:54:03;10.30;;;6.20;;
61840;SDS011;47773;53.174;6.614;2024-02-16T10:59:02;12.63;;;6.38;;
61840;SDS011;47773;53.174;6.614;2024-02-16T11:01:32;12.10;;;6.85;;
61840;SDS011;47773;53.174;6.614;2024-02-16T11:04:05;18.55;;;7.28;;
61840;SDS011;47773;53.174;6.614;2024-02-16T11:06:48;13.88;;;7.30;;
61840;SDS011;47773;53.174;6.614;2024-02-16T11:09:25;11.98;;;7.45;;
61840;SDS011;47773;53.174;6.614;2024-02-16T11:11:52;15.07;;;7.38;;
61840;SDS011;47773;53.174;6.614;2024-02-16T11:14:38;15.75;;;7.20;;
61840;SDS011;47773;53.174;6.614;2024-02-16T11:17:14;12.15;;;7.10;;
61840;SDS011;47773;53.174;6.614;2024-02-16T11:19:46;13.48;;;7.32;;
61840;SDS011;47773;53.174;6.614;2024-02-16T11:22:16;17.45;;;7.63;;
61840;SDS011;47773;53.174;6.614;2024-02-16T11:24:45;15.88;;;7.95;;
61840;SDS011;47773;53.174;6.614;2024-02-16T11:27:12;14.45;;;8.38;;
61840;SDS011;47773;53.174;6.614;2024-02-16T11:29:40;18.35;;;9.20;;
61840;SDS011;47773;53.174;6.614;2024-02-16T11:32:06;18.98;;;10.15;;
61840;SDS011;47773;53.174;6.614;2024-02-16T11:34:33;23.08;;;11.60;;
61840;SDS011;47773;53.174;6.614;2024-02-16T11:36:59;23.08;;;10.98;;
61840;SDS011;47773;53.174;6.614;2024-02-16T11:39:30;21.33;;;10.75;;
61840;SDS011;47773;53.174;6.614;2024-02-16T11:42:03;21.42;;;10.43;;
61840;SDS011;47773;53.174;6.614;2024-02-16T11:44:30;22.98;;;10.02;;
61840;SDS011;47773;53.174;6.614;2024-02-16T11:47:00;23.85;;;9.77;;
61840;SDS011;47773;53.174;6.614;2024-02-16T11:49:27;24.80;;;9.82;;
61840;SDS011;47773;53.174;6.614;2024-02-16T11:51:56;17.92;;;8.70;;
61840;SDS011;47773;53.174;6.614;2024-02-16T11:54:24;17.52;;;8.18;;
61840;SDS011;47773;53.174;6.614;2024-02-16T11:56:51;15.98;;;7.75;;
61840;SDS011;47773;53.174;6.614;2024-02-16T11:59:17;13.88;;;7.53;;
61840;SDS011;47773;53.174;6.614;2024-02-16T12:01:56;14.55;;;6.75;;
61840;SDS011;47773;53.174;6.614;2024-02-16T12:04:23;14.27;;;7.43;;
61840;SDS011;47773;53.174;6.614;2024-02-16T12:06:51;13.30;;;6.88;;
61840;SDS011;47773;53.174;6.614;2024-02-16T12:09:17;11.75;;;6.63;;
61840;SDS011;47773;53.174;6.614;2024-02-16T12:11:43;12.65;;;6.53;;
61840;SDS011;47773;53.174;6.614;2024-02-16T12:14:10;11.52;;;6.40;;
61840;SDS011;47773;53.174;6.614;2024-02-16T12:16:36;13.40;;;6.25;;
61840;SDS011;47773;53.174;6.614;2024-02-16T12:19:05;13.20;;;6.20;;
61840;SDS011;47773;53.174;6.614;2024-02-16T12:21:31;11.23;;;6.25;;
61840;SDS011;47773;53.174;6.614;2024-02-16T12:23:57;10.52;;;5.32;;
61840;SDS011;47773;53.174;6.614;2024-02-16T12:26:22;9.43;;;5.13;;
61840;SDS011;47773;53.174;6.614;2024-02-16T12:28:48;11.95;;;5.03;;
61840;SDS011;47773;53.174;6.614;2024-02-16T12:31:23;9.55;;;5.20;;
61840;SDS011;47773;53.174;6.614;2024-02-16T12:33:51;10.25;;;5.72;;
61840;SDS011;47773;53.174;6.614;2024-02-16T12:36:17;11.80;;;4.80;;
61840;SDS011;47773;53.174;6.614;2024-02-16T12:38:43;10.05;;;5.00;;
61840;SDS011;47773;53.174;6.614;2024-02-16T12:41:09;9.00;;;4.60;;
61840;SDS011;47773;53.174;6.614;2024-02-16T12:43:35;8.57;;;4.18;;
61840;SDS011;47773;53.174;6.614;2024-02-16T12:46:00;7.80;;;3.92;;
61840;SDS011;47773;53.174;6.614;2024-02-16T12:48:29;5.78;;;3.80;;
61840;SDS011;47773;53.174;6.614;2024-02-16T12:50:54;11.27;;;4.18;;
61840;SDS011;47773;53.174;6.614;2024-02-16T12:53:22;6.88;;;3.50;;
61840;SDS011;47773;53.174;6.614;2024-02-16T12:55:49;8.32;;;3.78;;
61840;SDS011;47773;53.174;6.614;2024-02-16T12:58:15;7.90;;;3.28;;
61840;SDS011;47773;53.174;6.614;2024-02-16T13:00:41;6.57;;;3.33;;
61840;SDS011;47773;53.174;6.614;2024-02-16T13:03:06;6.63;;;3.45;;
61840;SDS011;47773;53.174;6.614;2024-02-16T13:05:33;5.30;;;3.38;;
61840;SDS011;47773;53.174;6.614;2024-02-16T13:07:59;7.18;;;3.33;;
61840;SDS011;47773;53.174;6.614;2024-02-16T13:10:25;8.38;;;3.58;;
61840;SDS011;47773;53.174;6.614;2024-02-16T13:12:50;6.05;;;3.30;;
61840;SDS011;47773;53.174;6.614;2024-02-16T13:15:16;4.63;;;2.83;;
61840;SDS011;47773;53.174;6.614;2024-02-16T13:17:42;7.70;;;3.55;;
61840;SDS011;47773;53.174;6.614;2024-02-16T13:20:07;6.03;;;3.33;;
61840;SDS011;47773;53.174;6.614;2024-02-16T13:22:37;4.20;;;2.40;;
61840;SDS011;47773;53.174;6.614;2024-02-16T13:25:03;4.30;;;2.60;;
61840;SDS011;47773;53.174;6.614;2024-02-16T13:27:29;4.85;;;2.50;;
61840;SDS011;47773;53.174;6.614;2024-02-16T13:29:55;4.05;;;2.30;;
61840;SDS011;47773;53.174;6.614;2024-02-16T13:32:21;4.45;;;2.40;;
61840;SDS011;47773;53.174;6.614;2024-02-16T13:34:47;4.80;;;2.63;;
61840;SDS011;47773;53.174;6.614;2024-02-16T13:37:13;5.25;;;1.92;;
61840;SDS011;47773;53.174;6.614;2024-02-16T13:39:38;4.43;;;2.33;;
61840;SDS011;47773;53.174;6.614;2024-02-16T13:42:04;4.60;;;2.60;;
61840;SDS011;47773;53.174;6.614;2024-02-16T13:44:30;2.58;;;2.00;;
61840;SDS011;47773;53.174;6.614;2024-02-16T13:46:56;5.00;;;2.50;;
61840;SDS011;47773;53.174;6.614;2024-02-16T13:49:22;4.10;;;2.15;;
61840;SDS011;47773;53.174;6.614;2024-02-16T13:51:48;4.70;;;2.25;;
61840;SDS011;47773;53.174;6.614;2024-02-16T13:54:14;3.28;;;1.90;;
61840;SDS011;47773;53.174;6.614;2024-02-16T13:56:39;4.00;;;2.10;;
61840;SDS011;47773;53.174;6.614;2024-02-16T13:59:06;3.92;;;2.28;;
61840;SDS011;47773;53.174;6.614;2024-02-16T14:01:34;4.82;;;2.35;;
61840;SDS011;47773;53.174;6.614;2024-02-16T14:04:02;3.15;;;2.03;;
61840;SDS011;47773;53.174;6.614;2024-02-16T14:06:28;5.60;;;2.13;;
61840;SDS011;47773;53.174;6.614;2024-02-16T14:08:56;3.17;;;2.10;;
61840;SDS011;47773;53.174;6.614;2024-02-16T14:11:22;4.88;;;2.17;;
61840;SDS011;47773;53.174;6.614;2024-02-16T14:13:48;5.82;;;1.90;;
61840;SDS011;47773;53.174;6.614;2024-02-16T14:16:14;4.15;;;1.80;;
61840;SDS011;47773;53.174;6.614;2024-02-16T14:18:40;3.83;;;2.20;;
61840;SDS011;47773;53.174;6.614;2024-02-16T14:21:05;5.43;;;2.15;;
61840;SDS011;47773;53.174;6.614;2024-02-16T14:23:31;4.45;;;2.10;;
61840;SDS011;47773;53.174;6.614;2024-02-16T14:25:58;3.10;;;1.85;;
61840;SDS011;47773;53.174;6.614;2024-02-16T14:28:24;5.60;;;1.85;;
61840;SDS011;47773;53.174;6.614;2024-02-16T14:30:49;4.53;;;1.80;;
61840;SDS011;47773;53.174;6.614;2024-02-16T14:33:18;4.10;;;1.95;;
61840;SDS011;47773;53.174;6.614;2024-02-16T14:35:44;4.18;;;1.90;;
61840;SDS011;47773;53.174;6.614;2024-02-16T14:38:10;5.20;;;1.67;;
61840;SDS011;47773;53.174;6.614;2024-02-16T14:40:37;3.67;;;1.65;;
61840;SDS011;47773;53.174;6.614;2024-02-16T14:43:03;4.45;;;1.90;;